<?xml version="1.0" encoding="UTF-8" standalone="no" ?>
<gpx xmlns="http://www.topografix.com/GPX/1/1" xmlns:xsi="http://www.w3.org/2001/XMLSchema-instance" xsi:schemaLocation="http://www.topografix.com/GPX/1/1 http://www.topografix.com/GPX/1/1/gpx.xsd" version="1.1" creator="VisuGPX - https://www.visugpx.com">
  <metadata>
    <name>Venise-Pamir J99 - Kirghiztan</name>
    <desc><![CDATA[Piste défoncée, très dure, mais magnifique paysage          ]]></desc>
  </metadata>
  <trk>
    <name><![CDATA[Venise-Pamir J99 - Kirghiztan_1]]></name>
    <trkseg>
      <trkpt lat="41.4649" lon="74.33551">
        <ele>2084.6</ele>
        <time>2018-09-08T03:05:09.000Z</time>
      </trkpt>
      <trkpt lat="41.46212" lon="74.33615">
        <ele>2070.2</ele>
        <time>2018-09-08T03:06:10.000Z</time>
      </trkpt>
      <trkpt lat="41.46171" lon="74.33789">
        <ele>2066.6</ele>
        <time>2018-09-08T03:07:44.000Z</time>
      </trkpt>
      <trkpt lat="41.46213" lon="74.34093">
        <ele>2067</ele>
        <time>2018-09-08T03:08:46.000Z</time>
      </trkpt>
      <trkpt lat="41.46249" lon="74.34335">
        <ele>2065.3</ele>
        <time>2018-09-08T03:09:47.000Z</time>
      </trkpt>
      <trkpt lat="41.4626" lon="74.34556">
        <ele>2067.5</ele>
        <time>2018-09-08T03:10:48.000Z</time>
      </trkpt>
      <trkpt lat="41.46279" lon="74.3475">
        <ele>2078.1</ele>
        <time>2018-09-08T03:11:48.000Z</time>
      </trkpt>
      <trkpt lat="41.46287" lon="74.34934">
        <ele>2079.3</ele>
        <time>2018-09-08T03:13:15.000Z</time>
      </trkpt>
      <trkpt lat="41.46299" lon="74.35133">
        <ele>2080.2</ele>
        <time>2018-09-08T03:14:16.000Z</time>
      </trkpt>
      <trkpt lat="41.46374" lon="74.35287">
        <ele>2076.4</ele>
        <time>2018-09-08T03:20:34.000Z</time>
      </trkpt>
      <trkpt lat="41.46309" lon="74.35582">
        <ele>2071.6</ele>
        <time>2018-09-08T03:21:35.000Z</time>
      </trkpt>
      <trkpt lat="41.46237" lon="74.35736">
        <ele>2080.2</ele>
        <time>2018-09-08T03:22:58.000Z</time>
      </trkpt>
      <trkpt lat="41.46194" lon="74.35908">
        <ele>2090.3</ele>
        <time>2018-09-08T03:24:24.000Z</time>
      </trkpt>
      <trkpt lat="41.46172" lon="74.36127">
        <ele>2091.9</ele>
        <time>2018-09-08T03:25:25.000Z</time>
      </trkpt>
      <trkpt lat="41.46146" lon="74.36446">
        <ele>2086</ele>
        <time>2018-09-08T03:26:26.000Z</time>
      </trkpt>
      <trkpt lat="41.46128" lon="74.36625">
        <ele>2084.5</ele>
        <time>2018-09-08T03:27:31.000Z</time>
      </trkpt>
      <trkpt lat="41.46118" lon="74.36805">
        <ele>2093.9</ele>
        <time>2018-09-08T03:28:40.000Z</time>
      </trkpt>
      <trkpt lat="41.46101" lon="74.36986">
        <ele>2097</ele>
        <time>2018-09-08T03:29:42.000Z</time>
      </trkpt>
      <trkpt lat="41.46089" lon="74.37166">
        <ele>2099.8</ele>
        <time>2018-09-08T03:30:47.000Z</time>
      </trkpt>
      <trkpt lat="41.46067" lon="74.37344">
        <ele>2106.8</ele>
        <time>2018-09-08T03:31:57.000Z</time>
      </trkpt>
      <trkpt lat="41.46055" lon="74.37524">
        <ele>2110.7</ele>
        <time>2018-09-08T03:33:10.000Z</time>
      </trkpt>
      <trkpt lat="41.46036" lon="74.37704">
        <ele>2119.5</ele>
        <time>2018-09-08T03:34:20.000Z</time>
      </trkpt>
      <trkpt lat="41.45897" lon="74.37772">
        <ele>2114.2</ele>
        <time>2018-09-08T03:35:21.000Z</time>
      </trkpt>
      <trkpt lat="41.45902" lon="74.38054">
        <ele>2095</ele>
        <time>2018-09-08T03:36:22.000Z</time>
      </trkpt>
      <trkpt lat="41.45904" lon="74.38385">
        <ele>2067.9</ele>
        <time>2018-09-08T03:37:23.000Z</time>
      </trkpt>
      <trkpt lat="41.46001" lon="74.3883">
        <ele>2037.1</ele>
        <time>2018-09-08T03:38:24.000Z</time>
      </trkpt>
      <trkpt lat="41.46231" lon="74.39184">
        <ele>2006</ele>
        <time>2018-09-08T03:39:25.000Z</time>
      </trkpt>
      <trkpt lat="41.46327" lon="74.39579">
        <ele>1978.4</ele>
        <time>2018-09-08T03:40:26.000Z</time>
      </trkpt>
      <trkpt lat="41.46316" lon="74.40065">
        <ele>1961.4</ele>
        <time>2018-09-08T03:41:27.000Z</time>
      </trkpt>
      <trkpt lat="41.4631" lon="74.40439">
        <ele>1952</ele>
        <time>2018-09-08T03:42:28.000Z</time>
      </trkpt>
      <trkpt lat="41.46289" lon="74.40625">
        <ele>1943.1</ele>
        <time>2018-09-08T03:43:29.000Z</time>
      </trkpt>
      <trkpt lat="41.46257" lon="74.408">
        <ele>1947.5</ele>
        <time>2018-09-08T03:45:14.000Z</time>
      </trkpt>
      <trkpt lat="41.46191" lon="74.41179">
        <ele>1926.4</ele>
        <time>2018-09-08T03:46:15.000Z</time>
      </trkpt>
      <trkpt lat="41.46103" lon="74.41546">
        <ele>1916.2</ele>
        <time>2018-09-08T03:47:16.000Z</time>
      </trkpt>
      <trkpt lat="41.46005" lon="74.41824">
        <ele>1909.5</ele>
        <time>2018-09-08T03:48:17.000Z</time>
      </trkpt>
      <trkpt lat="41.45938" lon="74.41987">
        <ele>1906.2</ele>
        <time>2018-09-08T03:51:26.000Z</time>
      </trkpt>
      <trkpt lat="41.45785" lon="74.42354">
        <ele>1897</ele>
        <time>2018-09-08T03:52:27.000Z</time>
      </trkpt>
      <trkpt lat="41.45819" lon="74.42596">
        <ele>1894.5</ele>
        <time>2018-09-08T03:53:28.000Z</time>
      </trkpt>
      <trkpt lat="41.45816" lon="74.42777">
        <ele>1903.2</ele>
        <time>2018-09-08T03:54:50.000Z</time>
      </trkpt>
      <trkpt lat="41.45955" lon="74.42934">
        <ele>1898</ele>
        <time>2018-09-08T03:55:51.000Z</time>
      </trkpt>
      <trkpt lat="41.46097" lon="74.42704">
        <ele>1891.2</ele>
        <time>2018-09-08T03:56:52.000Z</time>
      </trkpt>
      <trkpt lat="41.46304" lon="74.42509">
        <ele>1868.8</ele>
        <time>2018-09-08T03:57:53.000Z</time>
      </trkpt>
      <trkpt lat="41.46465" lon="74.42414">
        <ele>1853.3</ele>
        <time>2018-09-08T03:58:54.000Z</time>
      </trkpt>
      <trkpt lat="41.46414" lon="74.4218">
        <ele>1848</ele>
        <time>2018-09-08T03:59:55.000Z</time>
      </trkpt>
      <trkpt lat="41.46605" lon="74.42023">
        <ele>1826.3</ele>
        <time>2018-09-08T04:00:56.000Z</time>
      </trkpt>
      <trkpt lat="41.46727" lon="74.41869">
        <ele>1823.8</ele>
        <time>2018-09-08T04:01:57.000Z</time>
      </trkpt>
      <trkpt lat="41.46898" lon="74.41655">
        <ele>1801.2</ele>
        <time>2018-09-08T04:02:58.000Z</time>
      </trkpt>
      <trkpt lat="41.46931" lon="74.41832">
        <ele>1772.8</ele>
        <time>2018-09-08T04:04:56.000Z</time>
      </trkpt>
      <trkpt lat="41.46797" lon="74.42112">
        <ele>1763.7</ele>
        <time>2018-09-08T04:05:57.000Z</time>
      </trkpt>
      <trkpt lat="41.4674" lon="74.42415">
        <ele>1758</ele>
        <time>2018-09-08T04:06:58.000Z</time>
      </trkpt>
      <trkpt lat="41.46638" lon="74.42617">
        <ele>1747.8</ele>
        <time>2018-09-08T04:07:59.000Z</time>
      </trkpt>
      <trkpt lat="41.46582" lon="74.42908">
        <ele>1736.8</ele>
        <time>2018-09-08T04:09:00.000Z</time>
      </trkpt>
      <trkpt lat="41.46576" lon="74.43111">
        <ele>1731</ele>
        <time>2018-09-08T04:10:01.000Z</time>
      </trkpt>
      <trkpt lat="41.46515" lon="74.43277">
        <ele>1732.2</ele>
        <time>2018-09-08T04:12:19.000Z</time>
      </trkpt>
      <trkpt lat="41.46479" lon="74.4367">
        <ele>1717.2</ele>
        <time>2018-09-08T04:13:20.000Z</time>
      </trkpt>
      <trkpt lat="41.46496" lon="74.44017">
        <ele>1708.6</ele>
        <time>2018-09-08T04:14:21.000Z</time>
      </trkpt>
      <trkpt lat="41.46512" lon="74.44325">
        <ele>1705.9</ele>
        <time>2018-09-08T04:15:22.000Z</time>
      </trkpt>
      <trkpt lat="41.46511" lon="74.4456">
        <ele>1710.3</ele>
        <time>2018-09-08T04:16:23.000Z</time>
      </trkpt>
      <trkpt lat="41.46667" lon="74.44668">
        <ele>1711.2</ele>
        <time>2018-09-08T04:17:24.000Z</time>
      </trkpt>
      <trkpt lat="41.46797" lon="74.44718">
        <ele>1722.1</ele>
        <time>2018-09-08T04:18:50.000Z</time>
      </trkpt>
      <trkpt lat="41.467" lon="74.44845">
        <ele>1738.3</ele>
        <time>2018-09-08T04:20:44.000Z</time>
      </trkpt>
      <trkpt lat="41.46625" lon="74.44996">
        <ele>1746.6</ele>
        <time>2018-09-08T04:23:04.000Z</time>
      </trkpt>
      <trkpt lat="41.46491" lon="74.45025">
        <ele>1760.7</ele>
        <time>2018-09-08T04:25:09.000Z</time>
      </trkpt>
      <trkpt lat="41.46375" lon="74.4512">
        <ele>1772.8</ele>
        <time>2018-09-08T04:27:02.000Z</time>
      </trkpt>
      <trkpt lat="41.46456" lon="74.45264">
        <ele>1777</ele>
        <time>2018-09-08T04:30:17.000Z</time>
      </trkpt>
      <trkpt lat="41.46592" lon="74.45277">
        <ele>1778.5</ele>
        <time>2018-09-08T04:31:45.000Z</time>
      </trkpt>
      <trkpt lat="41.46727" lon="74.45275">
        <ele>1793.8</ele>
        <time>2018-09-08T04:33:43.000Z</time>
      </trkpt>
      <trkpt lat="41.4669" lon="74.45449">
        <ele>1808</ele>
        <time>2018-09-08T04:35:31.000Z</time>
      </trkpt>
      <trkpt lat="41.46694" lon="74.4563">
        <ele>1808.9</ele>
        <time>2018-09-08T04:36:44.000Z</time>
      </trkpt>
      <trkpt lat="41.46671" lon="74.45811">
        <ele>1814.3</ele>
        <time>2018-09-08T04:38:06.000Z</time>
      </trkpt>
      <trkpt lat="41.46744" lon="74.45965">
        <ele>1811.3</ele>
        <time>2018-09-08T04:39:27.000Z</time>
      </trkpt>
      <trkpt lat="41.4683" lon="74.46113">
        <ele>1816.2</ele>
        <time>2018-09-08T04:40:28.000Z</time>
      </trkpt>
      <trkpt lat="41.46906" lon="74.46264">
        <ele>1826.1</ele>
        <time>2018-09-08T04:41:39.000Z</time>
      </trkpt>
      <trkpt lat="41.46982" lon="74.46416">
        <ele>1829.6</ele>
        <time>2018-09-08T04:42:50.000Z</time>
      </trkpt>
      <trkpt lat="41.47062" lon="74.46562">
        <ele>1839.1</ele>
        <time>2018-09-08T04:44:12.000Z</time>
      </trkpt>
      <trkpt lat="41.47103" lon="74.46734">
        <ele>1849.8</ele>
        <time>2018-09-08T04:45:46.000Z</time>
      </trkpt>
      <trkpt lat="41.47139" lon="74.4691">
        <ele>1852.8</ele>
        <time>2018-09-08T04:46:47.000Z</time>
      </trkpt>
      <trkpt lat="41.47173" lon="74.47086">
        <ele>1860.6</ele>
        <time>2018-09-08T04:48:09.000Z</time>
      </trkpt>
      <trkpt lat="41.4718" lon="74.47267">
        <ele>1879.6</ele>
        <time>2018-09-08T04:50:03.000Z</time>
      </trkpt>
      <trkpt lat="41.47119" lon="74.47428">
        <ele>1894.2</ele>
        <time>2018-09-08T04:51:47.000Z</time>
      </trkpt>
      <trkpt lat="41.47254" lon="74.47715">
        <ele>1890.6</ele>
        <time>2018-09-08T04:52:47.000Z</time>
      </trkpt>
      <trkpt lat="41.47401" lon="74.48">
        <ele>1879.2</ele>
        <time>2018-09-08T04:53:48.000Z</time>
      </trkpt>
      <trkpt lat="41.4747" lon="74.48155">
        <ele>1892.2</ele>
        <time>2018-09-08T04:55:27.000Z</time>
      </trkpt>
      <trkpt lat="41.47546" lon="74.48359">
        <ele>1896.1</ele>
        <time>2018-09-08T04:56:28.000Z</time>
      </trkpt>
      <trkpt lat="41.47594" lon="74.48539">
        <ele>1899.3</ele>
        <time>2018-09-08T04:57:29.000Z</time>
      </trkpt>
      <trkpt lat="41.47655" lon="74.48705">
        <ele>1887.3</ele>
        <time>2018-09-08T05:15:21.000Z</time>
      </trkpt>
      <trkpt lat="41.47826" lon="74.49247">
        <ele>1868.8</ele>
        <time>2018-09-08T05:16:22.000Z</time>
      </trkpt>
      <trkpt lat="41.47896" lon="74.49757">
        <ele>1852.9</ele>
        <time>2018-09-08T05:17:23.000Z</time>
      </trkpt>
      <trkpt lat="41.4793" lon="74.50016">
        <ele>1854.1</ele>
        <time>2018-09-08T05:18:24.000Z</time>
      </trkpt>
      <trkpt lat="41.47959" lon="74.50207">
        <ele>1854.3</ele>
        <time>2018-09-08T05:19:25.000Z</time>
      </trkpt>
      <trkpt lat="41.47992" lon="74.50383">
        <ele>1859.8</ele>
        <time>2018-09-08T05:20:57.000Z</time>
      </trkpt>
      <trkpt lat="41.48151" lon="74.50719">
        <ele>1860.7</ele>
        <time>2018-09-08T05:21:58.000Z</time>
      </trkpt>
      <trkpt lat="41.48237" lon="74.50874">
        <ele>1868.1</ele>
        <time>2018-09-08T05:22:59.000Z</time>
      </trkpt>
      <trkpt lat="41.48342" lon="74.51031">
        <ele>1866.3</ele>
        <time>2018-09-08T05:24:00.000Z</time>
      </trkpt>
      <trkpt lat="41.48405" lon="74.51192">
        <ele>1868.1</ele>
        <time>2018-09-08T05:25:09.000Z</time>
      </trkpt>
      <trkpt lat="41.48455" lon="74.51361">
        <ele>1876.8</ele>
        <time>2018-09-08T05:26:53.000Z</time>
      </trkpt>
      <trkpt lat="41.48531" lon="74.51513">
        <ele>1888</ele>
        <time>2018-09-08T05:28:15.000Z</time>
      </trkpt>
      <trkpt lat="41.48398" lon="74.51478">
        <ele>1921.3</ele>
        <time>2018-09-08T05:32:18.000Z</time>
      </trkpt>
      <trkpt lat="41.48313" lon="74.51621">
        <ele>1953.4</ele>
        <time>2018-09-08T05:37:26.000Z</time>
      </trkpt>
      <trkpt lat="41.48325" lon="74.518">
        <ele>1970.5</ele>
        <time>2018-09-08T05:39:08.000Z</time>
      </trkpt>
      <trkpt lat="41.48358" lon="74.51976">
        <ele>1972.5</ele>
        <time>2018-09-08T05:41:00.000Z</time>
      </trkpt>
      <trkpt lat="41.48386" lon="74.52154">
        <ele>1981.9</ele>
        <time>2018-09-08T05:42:45.000Z</time>
      </trkpt>
      <trkpt lat="41.48392" lon="74.52336">
        <ele>1987.7</ele>
        <time>2018-09-08T05:44:06.000Z</time>
      </trkpt>
      <trkpt lat="41.48398" lon="74.52821">
        <ele>1967.1</ele>
        <time>2018-09-08T05:45:07.000Z</time>
      </trkpt>
      <trkpt lat="41.48468" lon="74.53467">
        <ele>1938.3</ele>
        <time>2018-09-08T05:46:08.000Z</time>
      </trkpt>
      <trkpt lat="41.48524" lon="74.53743">
        <ele>1933.7</ele>
        <time>2018-09-08T05:47:09.000Z</time>
      </trkpt>
      <trkpt lat="41.48568" lon="74.54002">
        <ele>1940.9</ele>
        <time>2018-09-08T05:48:10.000Z</time>
      </trkpt>
      <trkpt lat="41.48624" lon="74.5429">
        <ele>1946.8</ele>
        <time>2018-09-08T05:49:11.000Z</time>
      </trkpt>
      <trkpt lat="41.48665" lon="74.54518">
        <ele>1950</ele>
        <time>2018-09-08T05:50:12.000Z</time>
      </trkpt>
      <trkpt lat="41.48708" lon="74.54691">
        <ele>1954.2</ele>
        <time>2018-09-08T05:51:18.000Z</time>
      </trkpt>
      <trkpt lat="41.48753" lon="74.54861">
        <ele>1961.9</ele>
        <time>2018-09-08T05:52:22.000Z</time>
      </trkpt>
      <trkpt lat="41.48807" lon="74.55027">
        <ele>1968.1</ele>
        <time>2018-09-08T05:53:30.000Z</time>
      </trkpt>
      <trkpt lat="41.48869" lon="74.5525">
        <ele>1971.2</ele>
        <time>2018-09-08T05:54:31.000Z</time>
      </trkpt>
      <trkpt lat="41.48927" lon="74.55414">
        <ele>1971.3</ele>
        <time>2018-09-08T05:55:34.000Z</time>
      </trkpt>
      <trkpt lat="41.48985" lon="74.55579">
        <ele>1980.6</ele>
        <time>2018-09-08T05:56:43.000Z</time>
      </trkpt>
      <trkpt lat="41.49029" lon="74.5575">
        <ele>1992.3</ele>
        <time>2018-09-08T05:57:58.000Z</time>
      </trkpt>
      <trkpt lat="41.49084" lon="74.55915">
        <ele>2000.9</ele>
        <time>2018-09-08T05:59:11.000Z</time>
      </trkpt>
      <trkpt lat="41.4912" lon="74.56108">
        <ele>2006.9</ele>
        <time>2018-09-08T06:00:12.000Z</time>
      </trkpt>
      <trkpt lat="41.49138" lon="74.56329">
        <ele>2011.2</ele>
        <time>2018-09-08T06:01:13.000Z</time>
      </trkpt>
      <trkpt lat="41.49167" lon="74.56629">
        <ele>2009.8</ele>
        <time>2018-09-08T06:02:14.000Z</time>
      </trkpt>
      <trkpt lat="41.49161" lon="74.56814">
        <ele>1989.6</ele>
        <time>2018-09-08T06:23:48.000Z</time>
      </trkpt>
      <trkpt lat="41.49098" lon="74.57172">
        <ele>1984.2</ele>
        <time>2018-09-08T06:24:49.000Z</time>
      </trkpt>
      <trkpt lat="41.48945" lon="74.57419">
        <ele>1980.3</ele>
        <time>2018-09-08T06:25:50.000Z</time>
      </trkpt>
      <trkpt lat="41.49067" lon="74.5751">
        <ele>1968.3</ele>
        <time>2018-09-08T06:27:18.000Z</time>
      </trkpt>
      <trkpt lat="41.49223" lon="74.57558">
        <ele>1956.4</ele>
        <time>2018-09-08T06:28:19.000Z</time>
      </trkpt>
      <trkpt lat="41.49235" lon="74.57742">
        <ele>1933.3</ele>
        <time>2018-09-08T06:29:29.000Z</time>
      </trkpt>
      <trkpt lat="41.49175" lon="74.58181">
        <ele>1902.6</ele>
        <time>2018-09-08T06:30:30.000Z</time>
      </trkpt>
      <trkpt lat="41.49001" lon="74.58455">
        <ele>1876.6</ele>
        <time>2018-09-08T06:31:31.000Z</time>
      </trkpt>
      <trkpt lat="41.48732" lon="74.58719">
        <ele>1852.6</ele>
        <time>2018-09-08T06:32:32.000Z</time>
      </trkpt>
      <trkpt lat="41.48476" lon="74.58969">
        <ele>1800.9</ele>
        <time>2018-09-08T06:33:33.000Z</time>
      </trkpt>
      <trkpt lat="41.48479" lon="74.59257">
        <ele>1784.9</ele>
        <time>2018-09-08T06:34:33.000Z</time>
      </trkpt>
      <trkpt lat="41.48611" lon="74.59299">
        <ele>1768.1</ele>
        <time>2018-09-08T06:35:59.000Z</time>
      </trkpt>
      <trkpt lat="41.48611" lon="74.5948">
        <ele>1758.1</ele>
        <time>2018-09-08T06:39:15.000Z</time>
      </trkpt>
      <trkpt lat="41.486" lon="74.5966">
        <ele>1774</ele>
        <time>2018-09-08T06:41:15.000Z</time>
      </trkpt>
      <trkpt lat="41.48704" lon="74.59778">
        <ele>1776.9</ele>
        <time>2018-09-08T06:42:21.000Z</time>
      </trkpt>
      <trkpt lat="41.48825" lon="74.59972">
        <ele>1777.2</ele>
        <time>2018-09-08T06:43:22.000Z</time>
      </trkpt>
      <trkpt lat="41.48952" lon="74.60186">
        <ele>1785.5</ele>
        <time>2018-09-08T06:44:23.000Z</time>
      </trkpt>
      <trkpt lat="41.49102" lon="74.60341">
        <ele>1789.5</ele>
        <time>2018-09-08T06:45:24.000Z</time>
      </trkpt>
      <trkpt lat="41.49226" lon="74.6054">
        <ele>1796.2</ele>
        <time>2018-09-08T06:46:25.000Z</time>
      </trkpt>
      <trkpt lat="41.49334" lon="74.60719">
        <ele>1805.4</ele>
        <time>2018-09-08T06:47:26.000Z</time>
      </trkpt>
      <trkpt lat="41.49456" lon="74.60914">
        <ele>1810.9</ele>
        <time>2018-09-08T06:48:27.000Z</time>
      </trkpt>
      <trkpt lat="41.49556" lon="74.61074">
        <ele>1816.6</ele>
        <time>2018-09-08T06:49:28.000Z</time>
      </trkpt>
      <trkpt lat="41.49649" lon="74.6122">
        <ele>1821.2</ele>
        <time>2018-09-08T06:50:29.000Z</time>
      </trkpt>
      <trkpt lat="41.49757" lon="74.61392">
        <ele>1826.2</ele>
        <time>2018-09-08T06:51:30.000Z</time>
      </trkpt>
      <trkpt lat="41.49862" lon="74.61554">
        <ele>1833.7</ele>
        <time>2018-09-08T06:52:30.000Z</time>
      </trkpt>
      <trkpt lat="41.49968" lon="74.61717">
        <ele>1840</ele>
        <time>2018-09-08T06:53:31.000Z</time>
      </trkpt>
      <trkpt lat="41.50059" lon="74.61864">
        <ele>1847.8</ele>
        <time>2018-09-08T06:54:32.000Z</time>
      </trkpt>
      <trkpt lat="41.50146" lon="74.62004">
        <ele>1853.5</ele>
        <time>2018-09-08T06:55:35.000Z</time>
      </trkpt>
      <trkpt lat="41.50235" lon="74.6214">
        <ele>1857.7</ele>
        <time>2018-09-08T06:56:36.000Z</time>
      </trkpt>
      <trkpt lat="41.50319" lon="74.62284">
        <ele>1867</ele>
        <time>2018-09-08T06:57:44.000Z</time>
      </trkpt>
      <trkpt lat="41.50408" lon="74.62421">
        <ele>1869.8</ele>
        <time>2018-09-08T06:58:55.000Z</time>
      </trkpt>
      <trkpt lat="41.50492" lon="74.62563">
        <ele>1877</ele>
        <time>2018-09-08T07:00:04.000Z</time>
      </trkpt>
      <trkpt lat="41.50577" lon="74.62705">
        <ele>1885.2</ele>
        <time>2018-09-08T07:01:14.000Z</time>
      </trkpt>
      <trkpt lat="41.50632" lon="74.6287">
        <ele>1882.1</ele>
        <time>2018-09-08T07:03:37.000Z</time>
      </trkpt>
      <trkpt lat="41.5068" lon="74.6304">
        <ele>1880.1</ele>
        <time>2018-09-08T07:04:45.000Z</time>
      </trkpt>
      <trkpt lat="41.50722" lon="74.63213">
        <ele>1881.4</ele>
        <time>2018-09-08T07:05:51.000Z</time>
      </trkpt>
      <trkpt lat="41.50763" lon="74.63387">
        <ele>1882.6</ele>
        <time>2018-09-08T07:07:00.000Z</time>
      </trkpt>
      <trkpt lat="41.50797" lon="74.63561">
        <ele>1900.8</ele>
        <time>2018-09-08T07:08:10.000Z</time>
      </trkpt>
      <trkpt lat="41.50824" lon="74.63739">
        <ele>1931.5</ele>
        <time>2018-09-08T07:09:47.000Z</time>
      </trkpt>
      <trkpt lat="41.50863" lon="74.63912">
        <ele>1940.2</ele>
        <time>2018-09-08T07:11:38.000Z</time>
      </trkpt>
      <trkpt lat="41.50865" lon="74.64092">
        <ele>1946.4</ele>
        <time>2018-09-08T07:13:34.000Z</time>
      </trkpt>
      <trkpt lat="41.50882" lon="74.64272">
        <ele>1973.5</ele>
        <time>2018-09-08T07:16:59.000Z</time>
      </trkpt>
      <trkpt lat="41.50885" lon="74.64453">
        <ele>1991.4</ele>
        <time>2018-09-08T07:18:52.000Z</time>
      </trkpt>
      <trkpt lat="41.50967" lon="74.64596">
        <ele>2005.9</ele>
        <time>2018-09-08T07:20:51.000Z</time>
      </trkpt>
      <trkpt lat="41.51065" lon="74.64721">
        <ele>2017</ele>
        <time>2018-09-08T07:22:48.000Z</time>
      </trkpt>
      <trkpt lat="41.51164" lon="74.64844">
        <ele>2023.8</ele>
        <time>2018-09-08T07:25:53.000Z</time>
      </trkpt>
      <trkpt lat="41.5126" lon="74.64972">
        <ele>2040.5</ele>
        <time>2018-09-08T08:01:11.000Z</time>
      </trkpt>
      <trkpt lat="41.51342" lon="74.65117">
        <ele>2056.6</ele>
        <time>2018-09-08T09:10:14.000Z</time>
      </trkpt>
      <trkpt lat="41.51454" lon="74.65218">
        <ele>2075.7</ele>
        <time>2018-09-08T09:12:02.000Z</time>
      </trkpt>
      <trkpt lat="41.5149" lon="74.65392">
        <ele>2089.2</ele>
        <time>2018-09-08T09:13:55.000Z</time>
      </trkpt>
      <trkpt lat="41.51558" lon="74.65548">
        <ele>2108.9</ele>
        <time>2018-09-08T09:17:12.000Z</time>
      </trkpt>
      <trkpt lat="41.516" lon="74.6572">
        <ele>2133.9</ele>
        <time>2018-09-08T09:20:39.000Z</time>
      </trkpt>
      <trkpt lat="41.51637" lon="74.65894">
        <ele>2160.1</ele>
        <time>2018-09-08T09:24:03.000Z</time>
      </trkpt>
      <trkpt lat="41.51599" lon="74.66068">
        <ele>2174.8</ele>
        <time>2018-09-08T09:26:51.000Z</time>
      </trkpt>
      <trkpt lat="41.51648" lon="74.66237">
        <ele>2195.1</ele>
        <time>2018-09-08T09:30:40.000Z</time>
      </trkpt>
      <trkpt lat="41.51646" lon="74.66418">
        <ele>2210.1</ele>
        <time>2018-09-08T09:33:49.000Z</time>
      </trkpt>
      <trkpt lat="41.51721" lon="74.6657">
        <ele>2211.6</ele>
        <time>2018-09-08T09:34:52.000Z</time>
      </trkpt>
      <trkpt lat="41.51705" lon="74.6675">
        <ele>2227.6</ele>
        <time>2018-09-08T09:36:28.000Z</time>
      </trkpt>
      <trkpt lat="41.51715" lon="74.66931">
        <ele>2241.4</ele>
        <time>2018-09-08T09:38:34.000Z</time>
      </trkpt>
      <trkpt lat="41.51766" lon="74.67099">
        <ele>2263.7</ele>
        <time>2018-09-08T09:42:12.000Z</time>
      </trkpt>
      <trkpt lat="41.51719" lon="74.67268">
        <ele>2276</ele>
        <time>2018-09-08T09:44:11.000Z</time>
      </trkpt>
      <trkpt lat="41.51704" lon="74.67448">
        <ele>2285.1</ele>
        <time>2018-09-08T09:45:59.000Z</time>
      </trkpt>
      <trkpt lat="41.51709" lon="74.67629">
        <ele>2299.4</ele>
        <time>2018-09-08T09:47:50.000Z</time>
      </trkpt>
      <trkpt lat="41.51686" lon="74.67809">
        <ele>2303</ele>
        <time>2018-09-08T10:02:53.000Z</time>
      </trkpt>
      <trkpt lat="41.51819" lon="74.67772">
        <ele>2325.1</ele>
        <time>2018-09-08T10:06:05.000Z</time>
      </trkpt>
      <trkpt lat="41.51862" lon="74.67944">
        <ele>2349.5</ele>
        <time>2018-09-08T10:09:03.000Z</time>
      </trkpt>
      <trkpt lat="41.51844" lon="74.68123">
        <ele>2361.3</ele>
        <time>2018-09-08T10:10:48.000Z</time>
      </trkpt>
      <trkpt lat="41.51855" lon="74.68303">
        <ele>2366.6</ele>
        <time>2018-09-08T10:11:53.000Z</time>
      </trkpt>
      <trkpt lat="41.51914" lon="74.68466">
        <ele>2383.6</ele>
        <time>2018-09-08T10:13:38.000Z</time>
      </trkpt>
      <trkpt lat="41.51915" lon="74.68647">
        <ele>2396.2</ele>
        <time>2018-09-08T10:15:30.000Z</time>
      </trkpt>
      <trkpt lat="41.51964" lon="74.68815">
        <ele>2423.6</ele>
        <time>2018-09-08T10:19:25.000Z</time>
      </trkpt>
      <trkpt lat="41.5196" lon="74.68995">
        <ele>2436.7</ele>
        <time>2018-09-08T10:21:39.000Z</time>
      </trkpt>
      <trkpt lat="41.52079" lon="74.69083">
        <ele>2459.5</ele>
        <time>2018-09-08T10:25:01.000Z</time>
      </trkpt>
      <trkpt lat="41.52197" lon="74.69175">
        <ele>2479.3</ele>
        <time>2018-09-08T10:28:21.000Z</time>
      </trkpt>
      <trkpt lat="41.52289" lon="74.69308">
        <ele>2486.6</ele>
        <time>2018-09-08T10:29:44.000Z</time>
      </trkpt>
      <trkpt lat="41.52395" lon="74.6942">
        <ele>2500</ele>
        <time>2018-09-08T10:31:18.000Z</time>
      </trkpt>
      <trkpt lat="41.524" lon="74.69601">
        <ele>2513.5</ele>
        <time>2018-09-08T10:34:45.000Z</time>
      </trkpt>
      <trkpt lat="41.52433" lon="74.69776">
        <ele>2528.5</ele>
        <time>2018-09-08T10:36:28.000Z</time>
      </trkpt>
      <trkpt lat="41.52542" lon="74.69884">
        <ele>2536</ele>
        <time>2018-09-08T10:38:21.000Z</time>
      </trkpt>
      <trkpt lat="41.5263" lon="74.70021">
        <ele>2559.6</ele>
        <time>2018-09-08T10:40:08.000Z</time>
      </trkpt>
      <trkpt lat="41.52713" lon="74.70165">
        <ele>2566.2</ele>
        <time>2018-09-08T10:41:52.000Z</time>
      </trkpt>
      <trkpt lat="41.52816" lon="74.70282">
        <ele>2583.1</ele>
        <time>2018-09-08T10:43:45.000Z</time>
      </trkpt>
      <trkpt lat="41.52921" lon="74.70397">
        <ele>2596.7</ele>
        <time>2018-09-08T10:45:43.000Z</time>
      </trkpt>
      <trkpt lat="41.53055" lon="74.70421">
        <ele>2607.6</ele>
        <time>2018-09-08T10:50:22.000Z</time>
      </trkpt>
      <trkpt lat="41.53187" lon="74.70458">
        <ele>2624.7</ele>
        <time>2018-09-08T10:52:05.000Z</time>
      </trkpt>
      <trkpt lat="41.53293" lon="74.70571">
        <ele>2634.4</ele>
        <time>2018-09-08T10:53:38.000Z</time>
      </trkpt>
      <trkpt lat="41.53165" lon="74.70511">
        <ele>2641.9</ele>
        <time>2018-09-08T10:56:00.000Z</time>
      </trkpt>
      <trkpt lat="41.5303" lon="74.70534">
        <ele>2650.6</ele>
        <time>2018-09-08T10:57:49.000Z</time>
      </trkpt>
      <trkpt lat="41.52902" lon="74.70595">
        <ele>2668</ele>
        <time>2018-09-08T11:00:44.000Z</time>
      </trkpt>
      <trkpt lat="41.52907" lon="74.70775">
        <ele>2685.3</ele>
        <time>2018-09-08T11:03:17.000Z</time>
      </trkpt>
      <trkpt lat="41.52897" lon="74.70955">
        <ele>2695.5</ele>
        <time>2018-09-08T11:04:46.000Z</time>
      </trkpt>
      <trkpt lat="41.52766" lon="74.71007">
        <ele>2703.9</ele>
        <time>2018-09-08T11:06:55.000Z</time>
      </trkpt>
      <trkpt lat="41.52689" lon="74.70858">
        <ele>2722</ele>
        <time>2018-09-08T11:10:43.000Z</time>
      </trkpt>
      <trkpt lat="41.52558" lon="74.70811">
        <ele>2728.4</ele>
        <time>2018-09-08T11:12:04.000Z</time>
      </trkpt>
      <trkpt lat="41.52627" lon="74.70966">
        <ele>2758</ele>
        <time>2018-09-08T11:16:17.000Z</time>
      </trkpt>
      <trkpt lat="41.52588" lon="74.71141">
        <ele>2758.6</ele>
        <time>2018-09-08T11:30:19.000Z</time>
      </trkpt>
      <trkpt lat="41.52461" lon="74.71204">
        <ele>2758.9</ele>
        <time>2018-09-08T11:31:23.000Z</time>
      </trkpt>
      <trkpt lat="41.52218" lon="74.71292">
        <ele>2746.4</ele>
        <time>2018-09-08T11:32:24.000Z</time>
      </trkpt>
      <trkpt lat="41.52088" lon="74.71557">
        <ele>2737.1</ele>
        <time>2018-09-08T11:33:25.000Z</time>
      </trkpt>
      <trkpt lat="41.51992" lon="74.71794">
        <ele>2721</ele>
        <time>2018-09-08T11:34:26.000Z</time>
      </trkpt>
      <trkpt lat="41.51805" lon="74.71822">
        <ele>2713.8</ele>
        <time>2018-09-08T11:35:27.000Z</time>
      </trkpt>
      <trkpt lat="41.51618" lon="74.72039">
        <ele>2687.5</ele>
        <time>2018-09-08T11:36:27.000Z</time>
      </trkpt>
      <trkpt lat="41.51485" lon="74.72216">
        <ele>2671.5</ele>
        <time>2018-09-08T11:37:28.000Z</time>
      </trkpt>
      <trkpt lat="41.51351" lon="74.72189">
        <ele>2656.6</ele>
        <time>2018-09-08T11:39:49.000Z</time>
      </trkpt>
      <trkpt lat="41.51044" lon="74.72238">
        <ele>2630.2</ele>
        <time>2018-09-08T11:40:50.000Z</time>
      </trkpt>
      <trkpt lat="41.50815" lon="74.72052">
        <ele>2608.5</ele>
        <time>2018-09-08T11:41:51.000Z</time>
      </trkpt>
      <trkpt lat="41.50544" lon="74.7191">
        <ele>2581.7</ele>
        <time>2018-09-08T11:42:52.000Z</time>
      </trkpt>
      <trkpt lat="41.50427" lon="74.71808">
        <ele>2575.5</ele>
        <time>2018-09-08T11:43:58.000Z</time>
      </trkpt>
      <trkpt lat="41.50217" lon="74.7155">
        <ele>2553.9</ele>
        <time>2018-09-08T11:44:59.000Z</time>
      </trkpt>
      <trkpt lat="41.50071" lon="74.71508">
        <ele>2536.4</ele>
        <time>2018-09-08T11:46:00.000Z</time>
      </trkpt>
      <trkpt lat="41.50176" lon="74.71747">
        <ele>2510.2</ele>
        <time>2018-09-08T11:47:01.000Z</time>
      </trkpt>
      <trkpt lat="41.50378" lon="74.72068">
        <ele>2496.6</ele>
        <time>2018-09-08T11:48:01.000Z</time>
      </trkpt>
      <trkpt lat="41.50351" lon="74.72247">
        <ele>2484.5</ele>
        <time>2018-09-08T11:49:02.000Z</time>
      </trkpt>
      <trkpt lat="41.50158" lon="74.72565">
        <ele>2470.9</ele>
        <time>2018-09-08T11:50:03.000Z</time>
      </trkpt>
      <trkpt lat="41.50064" lon="74.73014">
        <ele>2455.2</ele>
        <time>2018-09-08T11:51:04.000Z</time>
      </trkpt>
      <trkpt lat="41.50059" lon="74.73354">
        <ele>2430.5</ele>
        <time>2018-09-08T11:52:05.000Z</time>
      </trkpt>
      <trkpt lat="41.50279" lon="74.73187">
        <ele>2414.9</ele>
        <time>2018-09-08T11:53:06.000Z</time>
      </trkpt>
      <trkpt lat="41.50461" lon="74.7304">
        <ele>2397.4</ele>
        <time>2018-09-08T11:54:07.000Z</time>
      </trkpt>
      <trkpt lat="41.50429" lon="74.7327">
        <ele>2372.8</ele>
        <time>2018-09-08T11:55:08.000Z</time>
      </trkpt>
      <trkpt lat="41.50287" lon="74.73625">
        <ele>2353.7</ele>
        <time>2018-09-08T11:56:09.000Z</time>
      </trkpt>
      <trkpt lat="41.50417" lon="74.73352">
        <ele>2330.9</ele>
        <time>2018-09-08T11:57:10.000Z</time>
      </trkpt>
      <trkpt lat="41.50548" lon="74.73294">
        <ele>2324.3</ele>
        <time>2018-09-08T11:58:21.000Z</time>
      </trkpt>
      <trkpt lat="41.50586" lon="74.73468">
        <ele>2286</ele>
        <time>2018-09-08T12:00:16.000Z</time>
      </trkpt>
      <trkpt lat="41.50697" lon="74.73363">
        <ele>2271.4</ele>
        <time>2018-09-08T12:01:38.000Z</time>
      </trkpt>
      <trkpt lat="41.50569" lon="74.73592">
        <ele>2246.2</ele>
        <time>2018-09-08T12:02:39.000Z</time>
      </trkpt>
      <trkpt lat="41.50605" lon="74.73768">
        <ele>2216.6</ele>
        <time>2018-09-08T12:03:52.000Z</time>
      </trkpt>
      <trkpt lat="41.50797" lon="74.73615">
        <ele>2202.3</ele>
        <time>2018-09-08T12:04:53.000Z</time>
      </trkpt>
      <trkpt lat="41.50937" lon="74.73766">
        <ele>2179</ele>
        <time>2018-09-08T12:05:54.000Z</time>
      </trkpt>
      <trkpt lat="41.5083" lon="74.73934">
        <ele>2154.7</ele>
        <time>2018-09-08T12:06:55.000Z</time>
      </trkpt>
      <trkpt lat="41.5064" lon="74.74085">
        <ele>2136.7</ele>
        <time>2018-09-08T12:07:56.000Z</time>
      </trkpt>
      <trkpt lat="41.50491" lon="74.74478">
        <ele>2103.9</ele>
        <time>2018-09-08T12:08:57.000Z</time>
      </trkpt>
      <trkpt lat="41.50234" lon="74.74619">
        <ele>2085.9</ele>
        <time>2018-09-08T12:09:57.000Z</time>
      </trkpt>
      <trkpt lat="41.50347" lon="74.74718">
        <ele>2066.7</ele>
        <time>2018-09-08T12:10:58.000Z</time>
      </trkpt>
      <trkpt lat="41.50566" lon="74.74773">
        <ele>2054</ele>
        <time>2018-09-08T12:11:59.000Z</time>
      </trkpt>
      <trkpt lat="41.50669" lon="74.75135">
        <ele>2028.4</ele>
        <time>2018-09-08T12:13:00.000Z</time>
      </trkpt>
      <trkpt lat="41.50856" lon="74.75477">
        <ele>1995</ele>
        <time>2018-09-08T12:14:01.000Z</time>
      </trkpt>
      <trkpt lat="41.51038" lon="74.75457">
        <ele>1978.8</ele>
        <time>2018-09-08T12:15:02.000Z</time>
      </trkpt>
      <trkpt lat="41.512" lon="74.75601">
        <ele>1961.3</ele>
        <time>2018-09-08T12:16:03.000Z</time>
      </trkpt>
      <trkpt lat="41.5121" lon="74.7582">
        <ele>1969.9</ele>
        <time>2018-09-08T12:17:04.000Z</time>
      </trkpt>
      <trkpt lat="41.51252" lon="74.75994">
        <ele>1975.8</ele>
        <time>2018-09-08T12:18:08.000Z</time>
      </trkpt>
      <trkpt lat="41.51306" lon="74.76201">
        <ele>1975.2</ele>
        <time>2018-09-08T12:19:09.000Z</time>
      </trkpt>
      <trkpt lat="41.51299" lon="74.76385">
        <ele>1978.3</ele>
        <time>2018-09-08T12:20:10.000Z</time>
      </trkpt>
      <trkpt lat="41.51144" lon="74.76573">
        <ele>1975.4</ele>
        <time>2018-09-08T12:21:11.000Z</time>
      </trkpt>
      <trkpt lat="41.50937" lon="74.76762">
        <ele>1964.3</ele>
        <time>2018-09-08T12:22:11.000Z</time>
      </trkpt>
      <trkpt lat="41.50609" lon="74.76951">
        <ele>1942.5</ele>
        <time>2018-09-08T12:23:12.000Z</time>
      </trkpt>
      <trkpt lat="41.50311" lon="74.77066">
        <ele>1928</ele>
        <time>2018-09-08T12:24:13.000Z</time>
      </trkpt>
      <trkpt lat="41.50179" lon="74.77102">
        <ele>1920.6</ele>
        <time>2018-09-08T12:25:14.000Z</time>
      </trkpt>
      <trkpt lat="41.50044" lon="74.77121">
        <ele>1910.9</ele>
        <time>2018-09-08T12:27:56.000Z</time>
      </trkpt>
      <trkpt lat="41.49674" lon="74.77143">
        <ele>1895.5</ele>
        <time>2018-09-08T12:28:57.000Z</time>
      </trkpt>
      <trkpt lat="41.49261" lon="74.77165">
        <ele>1874.7</ele>
        <time>2018-09-08T12:29:58.000Z</time>
      </trkpt>
      <trkpt lat="41.48876" lon="74.77186">
        <ele>1850.3</ele>
        <time>2018-09-08T12:30:58.000Z</time>
      </trkpt>
      <trkpt lat="41.48522" lon="74.77208">
        <ele>1829.7</ele>
        <time>2018-09-08T12:31:59.000Z</time>
      </trkpt>
      <trkpt lat="41.48243" lon="74.77219">
        <ele>1822.2</ele>
        <time>2018-09-08T12:32:59.000Z</time>
      </trkpt>
      <trkpt lat="41.47952" lon="74.7724">
        <ele>1811.5</ele>
        <time>2018-09-08T12:34:00.000Z</time>
      </trkpt>
      <trkpt lat="41.47708" lon="74.773">
        <ele>1803.6</ele>
        <time>2018-09-08T12:35:00.000Z</time>
      </trkpt>
      <trkpt lat="41.47576" lon="74.77345">
        <ele>1797</ele>
        <time>2018-09-08T12:36:03.000Z</time>
      </trkpt>
      <trkpt lat="41.47314" lon="74.77516">
        <ele>1774.8</ele>
        <time>2018-09-08T12:37:04.000Z</time>
      </trkpt>
      <trkpt lat="41.47174" lon="74.77515">
        <ele>1754</ele>
        <time>2018-09-08T12:38:05.000Z</time>
      </trkpt>
    </trkseg>
  </trk>
</gpx>